Terminal Aerodrome Forecast
Issued by NWS Twin Cities, MN

Home | Current Version | Previous Version | Text Only | Print | Product List | Glossary Off
Versions: 1 2 3 4 5 6 7 8 9 10 11 12 13 14 15 16 17

000
FTUS43 KMPX 050520
TAFEAU
TAF
KEAU 050520Z 0506/0606 19006KT 5SM HZ SCT050 SCT250
     FM050800 19004KT 2SM BR SCT250
     FM051400 17009KT P6SM FEW250
     FM051600 18012G19KT P6SM SCT250=

USA.gov is the U.S. government's official web portal to all federal, state and local government web resources and services.